createdAt,value
2022-10-26T00:00:04.498Z,4.23
2022-10-26T00:02:53.365Z,4.90
2022-10-26T00:05:40.459Z,4.77
2022-10-26T00:08:27.485Z,5.73
2022-10-26T00:11:15.263Z,6.57
2022-10-26T00:14:02.284Z,5.90
2022-10-26T00:16:49.353Z,4.77
2022-10-26T00:19:38.064Z,5.30
2022-10-26T00:22:25.099Z,5.57
2022-10-26T00:25:12.212Z,5.73
2022-10-26T00:27:59.407Z,5.20
2022-10-26T00:30:46.357Z,5.20
2022-10-26T00:33:33.679Z,5.50
2022-10-26T00:36:21.230Z,5.20
2022-10-26T00:39:12.303Z,5.30
2022-10-26T00:41:59.260Z,5.67
2022-10-26T00:44:49.419Z,5.53
2022-10-26T00:47:47.769Z,5.60
2022-10-26T00:50:39.121Z,4.77
2022-10-26T00:53:27.148Z,5.40
2022-10-26T00:56:14.297Z,5.40
2022-10-26T00:59:06.310Z,5.23
2022-10-26T01:01:53.575Z,4.57
2022-10-26T01:04:40.704Z,5.33
2022-10-26T01:07:28.040Z,5.30
2022-10-26T01:10:15.199Z,5.40
2022-10-26T01:13:02.997Z,5.90
2022-10-26T01:16:03.731Z,5.60
2022-10-26T01:19:25.494Z,6.40
2022-10-26T01:22:33.373Z,5.40
2022-10-26T01:25:35.238Z,8.30
2022-10-26T01:28:53.353Z,5.63
2022-10-26T01:32:12.794Z,5.30
2022-10-26T01:35:09.221Z,6.53
2022-10-26T01:38:08.759Z,5.83
2022-10-26T01:41:31.360Z,6.70
2022-10-26T01:44:31.181Z,6.40
2022-10-26T01:47:20.600Z,6.13
2022-10-26T01:50:09.998Z,7.00
2022-10-26T01:52:56.949Z,6.87
2022-10-26T01:55:54.796Z,6.37
2022-10-26T01:58:55.988Z,7.27
2022-10-26T02:01:46.019Z,6.97
2022-10-26T02:04:53.941Z,6.30
2022-10-26T02:07:57.560Z,6.90
2022-10-26T02:11:09.275Z,6.53
2022-10-26T02:14:10.352Z,5.80
2022-10-26T02:17:08.784Z,7.10
2022-10-26T02:20:08.757Z,5.90
2022-10-26T02:22:56.497Z,6.03
2022-10-26T02:25:50.306Z,6.43
2022-10-26T02:28:42.356Z,6.10
2022-10-26T02:31:32.419Z,6.63
2022-10-26T02:34:27.075Z,6.33
2022-10-26T02:37:18.223Z,6.50
2022-10-26T02:40:11.643Z,6.70
2022-10-26T02:43:04.478Z,6.13
2022-10-26T02:45:56.381Z,5.73
2022-10-26T02:48:43.767Z,7.60
2022-10-26T02:51:46.597Z,6.03
2022-10-26T02:54:36.734Z,7.10
2022-10-26T02:57:33.247Z,5.90
2022-10-26T03:00:20.538Z,5.70
2022-10-26T03:03:07.685Z,6.70
2022-10-26T03:05:54.758Z,6.43
2022-10-26T03:08:41.989Z,6.17
2022-10-26T03:11:29.054Z,6.30
2022-10-26T03:14:16.133Z,5.63
2022-10-26T03:17:03.160Z,6.03
2022-10-26T03:19:50.331Z,6.27
2022-10-26T03:22:37.337Z,5.83
2022-10-26T03:25:25.324Z,5.90
2022-10-26T03:28:12.630Z,6.10
2022-10-26T03:30:59.559Z,5.50
2022-10-26T03:33:46.593Z,5.57
2022-10-26T03:36:33.986Z,5.37
2022-10-26T03:39:21.021Z,5.30
2022-10-26T03:42:07.947Z,5.83
2022-10-26T03:44:54.946Z,5.43
2022-10-26T03:47:49.425Z,5.90
2022-10-26T03:50:36.596Z,5.57
2022-10-26T03:53:23.620Z,4.97
2022-10-26T03:56:10.603Z,5.07
2022-10-26T03:58:58.051Z,6.67
2022-10-26T04:01:45.169Z,6.23
2022-10-26T04:04:33.040Z,5.40
2022-10-26T04:07:20.072Z,5.70
2022-10-26T04:10:07.945Z,5.30
2022-10-26T04:12:56.401Z,6.27
2022-10-26T04:15:43.628Z,4.50
2022-10-26T04:18:31.400Z,5.70
2022-10-26T04:21:18.635Z,5.90
2022-10-26T04:24:06.730Z,5.50
2022-10-26T04:26:53.763Z,5.30
2022-10-26T04:29:41.679Z,4.90
2022-10-26T04:32:28.869Z,4.80
2022-10-26T04:35:16.561Z,4.83
2022-10-26T04:38:06.865Z,4.43
2022-10-26T04:40:56.629Z,5.00
2022-10-26T04:43:43.883Z,4.80
2022-10-26T04:46:31.856Z,5.10
2022-10-26T04:49:19.496Z,4.90
2022-10-26T04:52:06.919Z,4.30
2022-10-26T04:54:54.180Z,5.00
2022-10-26T04:57:45.630Z,4.20
2022-10-26T05:00:35.592Z,4.20
2022-10-26T05:06:00.405Z,4.10
2022-10-26T05:08:47.490Z,4.77
2022-10-26T05:11:34.561Z,4.33
2022-10-26T05:14:21.572Z,4.80
2022-10-26T05:17:08.840Z,4.27
2022-10-26T05:19:57.977Z,4.27
2022-10-26T05:22:53.050Z,4.50
2022-10-26T05:25:40.074Z,4.30
2022-10-26T05:28:27.275Z,4.33
2022-10-26T05:31:14.501Z,4.20
2022-10-26T05:34:01.747Z,4.27
2022-10-26T05:36:48.787Z,4.50
2022-10-26T05:39:35.723Z,4.03
2022-10-26T05:42:23.139Z,4.30
2022-10-26T05:45:11.172Z,3.77
2022-10-26T05:48:01.596Z,4.83
2022-10-26T05:50:50.238Z,3.93
2022-10-26T05:53:37.295Z,3.93
2022-10-26T05:56:37.248Z,3.50
2022-10-26T05:59:24.578Z,4.37
2022-10-26T06:02:40.508Z,4.07
2022-10-26T06:05:33.240Z,4.17
2022-10-26T06:08:22.156Z,4.00
2022-10-26T06:11:09.729Z,4.70
2022-10-26T06:14:00.232Z,3.30
2022-10-26T06:16:50.462Z,4.73
2022-10-26T06:20:06.045Z,4.00
2022-10-26T06:23:32.781Z,3.90
2022-10-26T06:26:39.209Z,4.53
2022-10-26T06:29:54.598Z,3.73
2022-10-26T06:32:46.597Z,3.93
2022-10-26T06:35:36.745Z,5.47
2022-10-26T06:38:27.670Z,4.27
2022-10-26T06:41:16.479Z,3.80
2022-10-26T06:44:06.246Z,4.27
2022-10-26T06:47:01.737Z,5.00
2022-10-26T06:50:05.618Z,4.53
2022-10-26T06:53:05.725Z,4.00
2022-10-26T06:55:53.302Z,3.97
2022-10-26T06:58:41.744Z,4.43
2022-10-26T07:01:28.955Z,3.80
2022-10-26T07:04:16.256Z,4.07
2022-10-26T07:07:03.725Z,4.10
2022-10-26T07:09:50.980Z,4.10
2022-10-26T07:12:38.299Z,4.20
2022-10-26T07:15:25.563Z,3.80
2022-10-26T07:18:12.899Z,3.97
2022-10-26T07:21:00.308Z,3.63
2022-10-26T07:23:47.285Z,4.00
2022-10-26T07:26:34.290Z,4.73
2022-10-26T07:29:22.650Z,4.23
2022-10-26T07:32:09.694Z,5.60
2022-10-26T07:34:56.740Z,6.50
2022-10-26T07:37:43.738Z,5.90
2022-10-26T07:40:31.241Z,5.07
2022-10-26T07:43:19.771Z,4.63
2022-10-26T07:46:06.966Z,4.00
2022-10-26T07:48:54.463Z,3.70
2022-10-26T07:51:41.530Z,3.53
2022-10-26T09:08:22.133Z,3.50
2022-10-26T09:11:36.054Z,3.50
2022-10-26T09:14:45.162Z,3.30
2022-10-26T09:18:02.680Z,3.30
2022-10-26T09:21:12.359Z,3.43
2022-10-26T09:24:07.832Z,3.20
2022-10-26T09:26:58.749Z,3.33
2022-10-26T09:29:46.462Z,3.13
2022-10-26T09:32:42.632Z,3.00
2022-10-26T09:36:00.289Z,3.10
2022-10-26T09:39:23.495Z,3.00
2022-10-26T09:42:29.103Z,3.13
2022-10-26T09:45:30.218Z,2.53
2022-10-26T09:48:27.970Z,2.83
2022-10-26T09:51:18.493Z,3.07
2022-10-26T09:53:45.771Z,2.50
2022-10-26T09:56:14.286Z,2.47
2022-10-26T09:59:09.138Z,2.67
2022-10-26T10:01:39.876Z,3.07
2022-10-26T10:04:31.516Z,3.33
2022-10-26T10:07:00.913Z,3.10
2022-10-26T10:09:28.923Z,2.30
2022-10-26T10:12:03.085Z,2.37
2022-10-26T10:14:39.871Z,2.63
2022-10-26T10:17:22.577Z,2.90
2022-10-26T10:19:49.816Z,3.00
2022-10-26T10:22:18.544Z,2.30
2022-10-26T10:24:58.582Z,2.90
2022-10-26T10:27:26.401Z,2.70
2022-10-26T10:29:59.767Z,2.60
2022-10-26T10:32:35.478Z,2.80
2022-10-26T10:35:29.129Z,2.40
2022-10-26T10:37:56.442Z,2.63
2022-10-26T10:40:28.393Z,2.70
2022-10-26T10:43:14.642Z,2.60
2022-10-26T10:45:46.619Z,2.90
2022-10-26T10:48:13.407Z,2.80
2022-10-26T10:50:53.313Z,2.70
2022-10-26T10:53:44.666Z,3.23
2022-10-26T10:56:19.944Z,3.50
2022-10-26T10:59:08.680Z,2.80
2022-10-26T11:02:24.315Z,3.10
2022-10-26T11:05:26.235Z,2.93
2022-10-26T11:08:08.613Z,2.87
2022-10-26T11:10:41.152Z,2.50
2022-10-26T11:13:22.332Z,3.17
2022-10-26T11:15:54.309Z,2.90
2022-10-26T11:18:50.413Z,2.90
2022-10-26T11:21:29.038Z,3.27
2022-10-26T11:24:40.415Z,2.87
2022-10-26T11:27:20.789Z,2.47
2022-10-26T11:29:56.936Z,3.07
2022-10-26T11:32:34.930Z,2.47
2022-10-26T11:35:18.772Z,3.03
2022-10-26T11:38:08.440Z,2.67
2022-10-26T11:41:01.886Z,2.80
2022-10-26T11:43:43.605Z,2.80
2022-10-26T11:46:31.639Z,2.80
2022-10-26T11:49:19.607Z,2.40
2022-10-26T11:52:28.832Z,2.90
2022-10-26T11:55:04.526Z,3.50
2022-10-26T11:57:35.351Z,2.90
2022-10-26T12:00:22.835Z,3.30
2022-10-26T12:03:00.889Z,2.70
2022-10-26T12:05:45.716Z,2.67
2022-10-26T12:08:37.256Z,2.57
2022-10-26T12:11:20.392Z,2.80
2022-10-26T12:14:08.158Z,3.10
2022-10-26T12:16:48.118Z,3.27
2022-10-26T12:21:58.446Z,3.03
2022-10-26T12:24:35.555Z,2.60
2022-10-26T12:27:05.046Z,2.50
2022-10-26T12:30:00.949Z,2.20
2022-10-26T12:32:33.658Z,2.10
2022-10-26T12:35:03.479Z,2.77
2022-10-26T12:37:36.921Z,2.57
2022-10-26T12:40:34.953Z,2.47
2022-10-26T12:43:14.286Z,2.33
2022-10-26T12:45:42.111Z,2.40
2022-10-26T12:48:34.953Z,2.47
2022-10-26T12:51:20.065Z,2.50
2022-10-26T12:54:28.213Z,2.13
2022-10-26T12:57:10.087Z,2.73
2022-10-26T12:59:45.839Z,2.20
2022-10-26T13:02:18.613Z,2.13
2022-10-26T13:05:33.619Z,2.70
2022-10-26T13:08:09.285Z,2.57
2022-10-26T13:10:38.326Z,2.33
2022-10-26T13:13:08.037Z,2.27
2022-10-26T13:15:53.488Z,2.20
2022-10-26T13:18:22.453Z,2.80
2022-10-26T13:21:14.784Z,2.00
2022-10-26T13:23:44.731Z,2.10
2022-10-26T13:26:18.199Z,2.20
2022-10-26T13:28:48.235Z,2.30
2022-10-26T13:31:36.223Z,2.30
2022-10-26T13:34:23.976Z,1.90
2022-10-26T13:37:00.099Z,1.70
2022-10-26T13:39:45.578Z,2.13
2022-10-26T13:42:16.995Z,2.20
2022-10-26T13:44:57.236Z,2.43
2022-10-26T13:47:41.427Z,2.10
2022-10-26T13:50:26.533Z,1.93
2022-10-26T13:52:59.872Z,2.30
2022-10-26T13:55:34.118Z,2.00
2022-10-26T13:58:28.102Z,2.57
2022-10-26T14:01:10.570Z,1.80
2022-10-26T14:03:38.345Z,2.37
2022-10-26T14:06:16.791Z,2.17
2022-10-26T14:08:46.463Z,2.50
2022-10-26T14:11:17.296Z,1.90
2022-10-26T14:13:45.887Z,2.00
2022-10-26T14:16:17.436Z,1.90
2022-10-26T14:18:46.030Z,2.27
2022-10-26T14:21:21.437Z,2.83
2022-10-26T14:24:07.549Z,2.10
2022-10-26T14:26:41.809Z,2.40
2022-10-26T14:29:24.140Z,1.93
2022-10-26T14:31:51.688Z,2.13
2022-10-26T14:34:19.452Z,2.13
2022-10-26T14:37:02.825Z,2.20
2022-10-26T14:39:37.515Z,2.07
2022-10-26T14:42:30.495Z,2.33
2022-10-26T14:44:58.122Z,2.03
2022-10-26T14:47:31.616Z,2.37
2022-10-26T14:52:35.134Z,2.30
2022-10-26T14:55:13.917Z,2.07
2022-10-26T14:57:46.087Z,2.47
2022-10-26T15:00:15.694Z,2.33
2022-10-26T15:02:44.892Z,2.60
2022-10-26T15:05:25.405Z,2.07
2022-10-26T15:07:53.357Z,1.70
2022-10-26T15:10:38.233Z,2.00
2022-10-26T15:13:25.047Z,1.97
2022-10-26T15:15:57.504Z,2.23
2022-10-26T15:18:35.234Z,1.83
2022-10-26T15:21:02.435Z,1.90
2022-10-26T15:23:30.975Z,2.10
2022-10-26T15:26:01.394Z,2.03
2022-10-26T15:28:49.518Z,1.90
2022-10-26T15:31:16.154Z,2.00
2022-10-26T15:34:04.642Z,2.47
2022-10-26T15:36:32.514Z,2.67
2022-10-26T15:38:59.802Z,1.93
2022-10-26T15:41:40.221Z,2.10
2022-10-26T15:44:16.073Z,2.30
2022-10-26T15:46:43.609Z,2.53
2022-10-26T15:49:17.703Z,2.50
2022-10-26T15:51:48.722Z,2.20
2022-10-26T15:54:15.847Z,2.23
2022-10-26T15:56:46.434Z,2.60
2022-10-26T15:59:16.511Z,2.23
2022-10-26T16:01:43.527Z,2.50
2022-10-26T16:04:12.100Z,2.80
2022-10-26T16:06:40.519Z,2.80
2022-10-26T16:09:13.308Z,3.03
2022-10-26T16:11:40.214Z,2.23
2022-10-26T16:14:07.305Z,2.37
2022-10-26T16:16:33.993Z,2.30
2022-10-26T16:19:25.440Z,3.03
2022-10-26T16:21:51.287Z,2.70
2022-10-26T16:24:21.103Z,2.80
2022-10-26T16:26:48.128Z,3.70
2022-10-26T16:29:15.209Z,2.93
2022-10-26T16:31:41.934Z,2.50
2022-10-26T16:34:08.625Z,3.03
2022-10-26T16:36:35.523Z,4.07
2022-10-26T16:41:34.636Z,4.07
2022-10-26T16:44:01.374Z,3.00
2022-10-26T16:46:28.254Z,3.20
2022-10-26T16:48:55.185Z,2.57
2022-10-26T16:51:24.649Z,2.40
2022-10-26T16:53:53.505Z,2.13
2022-10-26T16:56:23.001Z,2.90
2022-10-26T16:58:49.991Z,2.77
2022-10-26T17:01:19.145Z,2.70
2022-10-26T17:03:47.672Z,2.40
2022-10-26T17:06:14.673Z,2.30
2022-10-26T17:08:42.050Z,3.03
2022-10-26T17:11:10.257Z,2.40
2022-10-26T17:13:38.277Z,2.53
2022-10-26T17:16:07.762Z,2.60
2022-10-26T17:18:34.530Z,2.90
2022-10-26T17:21:01.465Z,2.43
2022-10-26T17:23:28.651Z,2.83
2022-10-26T17:26:00.383Z,2.83
2022-10-26T17:28:27.569Z,2.40
2022-10-26T17:31:03.602Z,2.87
2022-10-26T17:33:33.295Z,2.83
2022-10-26T17:36:01.165Z,2.40
2022-10-26T17:38:31.997Z,2.50
2022-10-26T17:41:03.171Z,2.67
2022-10-26T17:43:31.541Z,2.77
2022-10-26T17:46:03.583Z,2.40
2022-10-26T17:48:31.959Z,2.33
2022-10-26T17:51:00.362Z,2.60
2022-10-26T17:53:27.381Z,2.47
2022-10-26T17:56:05.033Z,2.30
2022-10-26T17:58:33.553Z,2.30
2022-10-26T18:01:02.421Z,2.07
2022-10-26T18:03:29.346Z,2.27
2022-10-26T18:05:56.287Z,2.40
2022-10-26T18:08:23.175Z,2.20
2022-10-26T18:10:55.386Z,2.30
2022-10-26T18:13:22.097Z,2.00
2022-10-26T18:15:48.916Z,2.83
2022-10-26T18:18:15.712Z,2.47
2022-10-26T18:20:42.435Z,2.50
2022-10-26T18:23:09.198Z,2.73
2022-10-26T18:25:36.582Z,2.10
2022-10-26T18:28:03.884Z,2.03
2022-10-26T18:30:30.905Z,2.97
2022-10-26T18:32:57.599Z,2.40
2022-10-26T18:35:24.419Z,2.13
2022-10-26T18:37:51.574Z,3.00
2022-10-26T18:40:18.437Z,3.20
2022-10-26T18:42:45.673Z,2.47
2022-10-26T18:45:12.461Z,3.60
2022-10-26T18:47:39.188Z,2.70
2022-10-26T18:50:06.310Z,3.20
2022-10-26T18:52:33.316Z,2.33
2022-10-26T18:55:00.112Z,2.50
2022-10-26T18:57:26.977Z,2.77
2022-10-26T18:59:54.991Z,2.40
2022-10-26T19:02:22.901Z,3.47
2022-10-26T19:04:52.973Z,2.80
2022-10-26T19:07:20.163Z,2.83
2022-10-26T19:09:47.106Z,2.90
2022-10-26T19:12:13.795Z,2.80
2022-10-26T19:14:40.595Z,2.30
2022-10-26T19:17:07.307Z,2.80
2022-10-26T19:19:34.233Z,2.70
2022-10-26T19:22:00.987Z,2.33
2022-10-26T19:24:27.789Z,3.50
2022-10-26T19:26:54.637Z,2.90
2022-10-26T19:29:21.674Z,2.67
2022-10-26T19:31:51.812Z,2.50
2022-10-26T19:34:18.683Z,2.83
2022-10-26T19:36:46.782Z,2.80
2022-10-26T19:39:15.537Z,2.40
2022-10-26T19:41:43.254Z,2.90
2022-10-26T19:44:11.194Z,3.73
2022-10-26T19:46:39.425Z,3.03
2022-10-26T19:49:06.532Z,2.83
2022-10-26T19:51:33.313Z,2.60
2022-10-26T19:54:03.728Z,2.80
2022-10-26T19:56:31.918Z,2.77
2022-10-26T19:58:59.220Z,2.50
2022-10-26T20:01:26.025Z,2.40
2022-10-26T20:03:53.143Z,2.63
2022-10-26T20:06:20.101Z,2.67
2022-10-26T20:08:48.698Z,2.50
2022-10-26T20:11:20.375Z,2.63
2022-10-26T20:13:48.734Z,3.30
2022-10-26T20:16:18.294Z,2.80
2022-10-26T20:18:48.147Z,2.60
2022-10-26T20:21:17.484Z,2.77
2022-10-26T20:23:44.812Z,3.40
2022-10-26T20:26:18.995Z,2.93
2022-10-26T20:28:52.553Z,2.80
2022-10-26T20:31:20.802Z,3.30
2022-10-26T20:33:52.979Z,3.10
2022-10-26T20:36:21.047Z,3.03
2022-10-26T20:38:50.141Z,3.00
2022-10-26T20:41:17.719Z,2.90
2022-10-26T20:43:45.062Z,3.10
2022-10-26T20:46:23.059Z,3.70
2022-10-26T20:48:51.783Z,3.43
2022-10-26T20:51:47.547Z,3.10
2022-10-26T20:54:30.265Z,3.50
2022-10-26T20:57:00.561Z,3.90
2022-10-26T20:59:28.416Z,4.00
2022-10-26T21:01:55.771Z,3.87
2022-10-26T21:04:22.846Z,3.40
2022-10-26T21:06:51.297Z,3.70
2022-10-26T21:09:20.235Z,3.57
2022-10-26T21:11:48.900Z,4.10
2022-10-26T21:14:15.636Z,4.07
2022-10-26T21:16:42.345Z,3.90
2022-10-26T21:19:09.240Z,3.80
2022-10-26T21:21:35.887Z,4.43
2022-10-26T21:24:02.640Z,4.23
2022-10-26T21:26:29.340Z,4.67
2022-10-26T21:28:56.086Z,3.90
2022-10-26T21:31:22.841Z,4.17
2022-10-26T21:33:49.589Z,4.13
2022-10-26T21:36:17.315Z,4.47
2022-10-26T21:38:45.602Z,4.20
2022-10-26T21:41:21.538Z,4.60
2022-10-26T21:43:55.972Z,4.43
2022-10-26T21:46:30.563Z,3.60
2022-10-26T21:48:57.255Z,3.87
2022-10-26T21:51:23.937Z,4.53
2022-10-26T21:53:51.708Z,4.00
2022-10-26T21:56:22.012Z,4.80
2022-10-26T21:58:49.109Z,3.83
2022-10-26T22:01:18.384Z,3.80
2022-10-26T22:03:46.043Z,3.70
2022-10-26T22:06:16.327Z,3.90
2022-10-26T22:08:43.624Z,4.33
2022-10-26T22:11:17.948Z,3.67
2022-10-26T22:13:46.091Z,4.03
2022-10-26T22:16:24.303Z,3.93
2022-10-26T22:18:53.185Z,4.43
2022-10-26T22:21:21.460Z,4.67
2022-10-26T22:23:48.375Z,4.90
2022-10-26T22:26:20.387Z,4.20
2022-10-26T22:28:48.469Z,4.40
2022-10-26T22:31:18.670Z,4.33
2022-10-26T22:33:45.482Z,4.80
2022-10-26T22:36:14.823Z,4.30
2022-10-26T22:38:42.142Z,4.23
2022-10-26T22:41:10.605Z,4.37
2022-10-26T22:43:37.529Z,3.80
2022-10-26T22:46:06.083Z,3.77
2022-10-26T22:48:33.986Z,4.00
2022-10-26T22:51:06.895Z,4.67
2022-10-26T22:53:33.705Z,4.13
2022-10-26T22:56:01.338Z,4.40
2022-10-26T22:58:28.766Z,3.90
2022-10-26T23:01:06.524Z,4.20
2022-10-26T23:03:34.050Z,3.63
2022-10-26T23:06:00.970Z,3.67
2022-10-26T23:08:27.992Z,4.57
2022-10-26T23:11:01.843Z,3.80
2022-10-26T23:13:28.839Z,3.73
2022-10-26T23:15:56.453Z,4.10
2022-10-26T23:18:23.397Z,4.03
2022-10-26T23:20:51.578Z,3.40
2022-10-26T23:23:18.676Z,3.87
2022-10-26T23:25:45.394Z,3.67
2022-10-26T23:28:12.255Z,3.43
2022-10-26T23:30:38.994Z,3.60
2022-10-26T23:33:05.882Z,3.87
2022-10-26T23:35:32.720Z,3.40
2022-10-26T23:37:59.675Z,4.20
2022-10-26T23:40:27.288Z,4.93
2022-10-26T23:42:54.425Z,3.90
2022-10-26T23:45:22.054Z,3.83
2022-10-26T23:47:49.295Z,3.97
2022-10-26T23:50:16.405Z,3.50
2022-10-26T23:52:49.852Z,3.80
2022-10-26T23:55:16.976Z,4.07
2022-10-26T23:57:43.632Z,4.50
